Airfield :
LOGIN :

Register | Disclaimer

   EN    FR    IT 

 










Legend :    VFR   Marginal VFR   IFR   Intensive IFR   Very Intensive IFR
Visi :
Ceiling :
>= 8 km
>= 3000ft
5 to 8 km
1000 to 3000 ft
1500m to 5 km
500 to 1000 ft
800 to 1500m
200 to 500 ft
< 800m
< 200 ft
Symbols :   Thunderstorms  Fog  Heavy snow  Heavy precipitations  Wind > 20 kt
SIGMETs :     Misc.  Thunderstorms  Icing  Turbulence  Mountain Waves  Volcanic Ashes







- Airport Elevation : 238 ft
- IATA code : FAB
- Download approach charts


EGLF - Farnborough

CURRENT METAR :
  • 281250Z 22014KT 9999 SCT024 18/14 Q1010

EXPIRED METARs :
  • 281220Z 23018KT 9999 VCSH SCT030 18/15 Q1010
  • 281150Z 24019KT 9999 SCT035 19/12 Q1009
  • 281120Z 23017KT 190V260 9999 SCT035 19/12 Q1009
  • 281050Z 23017KT 9999 VCSH SCT033 18/13 Q1009
  • 281020Z 23016KT 9999 FEW027 19/12 Q1009

TAF TAF EGLF
Valid from the 28 at 09:00 until the 28 at 18:00 UTC


280804Z 2809/2818 24012KT 9999 SCT030
PROB30
TEMPO 2812/2815 23015G25KT 9000 -SHRA
TEMPO 2815/2818 22018G28KT 7000 RA
ATIS : +44 09063 800 400 (*282)
No reported NOTAMs for that airfield.



MET'MAP, your aeronautical weather chart ! - Copyright ORBIFLY December 2007 - Disclaimer

ORBIFLY MET'MAP TEAM :

Programming & Development : Alexandra Zaïnal
Concept & Development : Baudouin d'Aumeries
Co-Development & Prog : Marc-Olivier Méhu
Technical & hardware support : Manuel Goepfert

Contact : metmap@orbifly.com




SOURCES & CREDITS :

   NOAA